Time;durP1;ratioP1;P1;durP2;ratioP2;P2;SDS_P1;SDS_P2;PMS_P1;PMS_P2;Temp;Humidity;BMP_temperature;BMP_pressure;BME280_temperature;BME280_humidity;BME280_pressure;Samples;Min_cycle;Max_cycle;Signal;HPM_P1;HPM_P2
2022/01/08 00:02:04;;;;;;;33.60;17.00;;;;;;;-2.31;58.40;100068.69;106985;1276;138157;-70
2022/01/08 00:04:35;;;;;;;33.60;16.50;;;;;;;-2.32;58.42;100064.44;105943;1276;97852;-68
2022/01/08 00:07:08;;;;;;;35.50;16.80;;;;;;;-2.32;58.02;100064.26;106501;1276;140850;-68
2022/01/08 00:09:40;;;;;;;37.60;16.00;;;;;;;-2.33;57.76;100060.14;106770;1276;112603;-69
2022/01/08 00:12:13;;;;;;;36.00;16.70;;;;;;;-2.34;57.83;100064.72;106489;1276;139054;-69
2022/01/08 00:14:45;;;;;;;36.20;16.40;;;;;;;-2.35;57.86;100058.72;106219;1276;108851;-69
2022/01/08 00:17:17;;;;;;;35.60;16.70;;;;;;;-2.38;57.73;100056.64;106029;1276;98525;-69
2022/01/08 00:19:49;;;;;;;38.70;17.00;;;;;;;-2.38;57.61;100059.02;107421;1276;138027;-70
2022/01/08 00:22:21;;;;;;;35.50;16.70;;;;;;;-2.40;57.83;100055.08;107470;1276;112426;-70
2022/01/08 00:24:53;;;;;;;34.10;16.40;;;;;;;-2.41;58.03;100053.52;105986;1277;142196;-69
2022/01/08 00:27:25;;;;;;;32.80;15.60;;;;;;;-2.43;57.77;100048.73;106080;1277;108970;-70
2022/01/08 00:29:57;;;;;;;36.20;16.40;;;;;;;-2.45;58.40;100042.75;106578;1277;139787;-69
2022/01/08 00:32:29;;;;;;;32.80;15.90;;;;;;;-2.47;57.78;100039.83;107519;1276;96121;-70
2022/01/08 00:35:01;;;;;;;34.90;16.30;;;;;;;-2.50;57.99;100040.13;107485;1276;112504;-70
2022/01/08 00:37:33;;;;;;;36.30;16.70;;;;;;;-2.52;57.78;100043.11;107388;1276;140320;-71
2022/01/08 00:40:07;;;;;;;35.00;16.70;;;;;;;-2.55;58.03;100039.33;106378;1277;107776;-69
2022/01/08 00:42:40;;;;;;;38.70;16.40;;;;;;;-2.57;58.05;100038.10;105896;1277;138305;-69
2022/01/08 00:45:13;;;;;;;40.60;17.50;;;;;;;-2.60;57.96;100032.95;106652;1276;96404;-69
2022/01/08 00:47:44;;;;;;;32.20;16.10;;;;;;;-2.61;57.82;100033.11;105979;1277;138178;-69
2022/01/08 00:50:16;;;;;;;36.30;16.00;;;;;;;-2.63;57.78;100033.59;107445;1277;109030;-69
2022/01/08 00:52:48;;;;;;;34.10;15.40;;;;;;;-2.64;57.94;100028.13;107407;1277;107690;-69
2022/01/08 00:55:20;;;;;;;34.30;15.60;;;;;;;-2.65;57.56;100029.81;107318;1276;138147;-69
2022/01/08 00:57:51;;;;;;;35.50;16.50;;;;;;;-2.67;57.55;100031.15;106444;1277;97843;-69
2022/01/08 01:00:23;;;;;;;31.60;15.30;;;;;;;-2.67;57.89;100026.21;107266;1277;139285;-69
2022/01/08 01:02:55;;;;;;;34.50;16.60;;;;;;;-2.69;57.77;100025.14;107502;1276;108278;-69
2022/01/08 01:05:27;;;;;;;33.90;16.10;;;;;;;-2.70;57.60;100025.61;107490;1277;108394;-68
2022/01/08 01:07:59;;;;;;;35.00;16.50;;;;;;;-2.71;57.98;100026.27;105948;1277;138563;-69
2022/01/08 01:10:31;;;;;;;36.00;16.60;;;;;;;-2.73;57.78;100021.48;106078;1277;97977;-70
2022/01/08 01:13:03;;;;;;;34.90;16.80;;;;;;;-2.76;57.78;100022.29;107265;1276;138804;-70
2022/01/08 01:15:35;;;;;;;38.50;18.40;;;;;;;-2.79;57.92;100016.96;107495;1277;109113;-70
2022/01/08 01:18:08;;;;;;;36.50;16.10;;;;;;;-2.83;58.04;100012.14;106920;1277;138556;-70
2022/01/08 01:20:40;;;;;;;37.90;17.00;;;;;;;-2.85;58.26;100015.49;106272;1277;98326;-70
2022/01/08 01:23:12;;;;;;;36.50;16.50;;;;;;;-2.89;58.33;100007.23;105842;1278;97825;-70
2022/01/08 01:25:49;;;;;;;37.90;16.80;;;;;;;-2.92;58.33;100005.83;105878;1277;138048;-69
2022/01/08 01:28:36;;;;;;;36.50;17.50;;;;;;;-2.96;58.37;100004.06;106325;1278;108983;-69
2022/01/08 01:43:04;;;;;;;35.40;17.10;;;;;;;-3.15;58.79;99976.85;107371;1276;138326;-70
2022/01/08 01:48:24;;;;;;;32.70;15.70;;;;;;;-3.19;59.23;99971.51;105896;1277;138410;-69
2022/01/08 01:50:56;;;;;;;34.40;16.70;;;;;;;-3.21;58.99;99974.02;106248;1277;97828;-68
2022/01/08 01:53:28;;;;;;;35.00;16.20;;;;;;;-3.21;58.77;99973.16;106060;1277;112514;-68
2022/01/08 01:56:00;;;;;;;34.10;15.80;;;;;;;-3.22;58.87;99976.54;105963;1276;137981;-68
2022/01/08 01:58:32;;;;;;;32.90;15.70;;;;;;;-3.22;58.56;99977.58;105971;1277;108833;-68
2022/01/08 02:01:03;;;;;;;31.60;14.80;;;;;;;-3.21;58.83;99975.54;106802;1277;138255;-69
2022/01/08 02:03:36;;;;;;;34.60;14.90;;;;;;;-3.21;58.76;99974.19;106469;1277;97832;-68
2022/01/08 02:06:09;;;;;;;36.80;15.80;;;;;;;-3.21;58.60;99973.16;107230;1277;138257;-68
2022/01/08 02:08:42;;;;;;;34.10;15.20;;;;;;;-3.21;58.50;99979.13;107541;1276;108877;-68
2022/01/08 02:11:17;;;;;;;33.10;16.10;;;;;;;-3.21;58.30;99977.59;107512;1277;107969;-69
2022/01/08 02:13:49;;;;;;;34.90;15.60;;;;;;;-3.21;58.47;99970.10;106503;1277;136938;-69
2022/01/08 02:16:20;;;;;;;36.20;15.00;;;;;;;-3.22;57.83;99963.13;106194;1277;97863;-68
2022/01/08 02:18:52;;;;;;;32.00;15.10;;;;;;;-3.22;58.23;99959.89;106828;1277;137997;-69
2022/01/08 02:21:26;;;;;;;31.20;15.20;;;;;;;-3.22;58.26;99956.15;107237;1277;109358;-69
2022/01/08 02:23:57;;;;;;;32.30;14.50;;;;;;;-3.23;58.43;99953.39;106820;1276;138362;-68
2022/01/08 02:26:29;;;;;;;32.30;16.00;;;;;;;-3.24;58.07;99954.72;105988;1276;97867;-69
2022/01/08 02:29:01;;;;;;;32.90;14.70;;;;;;;-3.26;57.85;99956.91;106577;1276;97851;-69
2022/01/08 02:31:33;;;;;;;32.10;14.40;;;;;;;-3.27;57.88;99951.09;106538;1276;137965;-69
2022/01/08 02:34:06;;;;;;;36.70;15.00;;;;;;;-3.29;58.19;99953.28;106197;1276;109074;-69
2022/01/08 02:36:39;;;;;;;34.30;16.10;;;;;;;-3.32;57.95;99954.77;105912;1276;139313;-69
2022/01/08 02:39:12;;;;;;;31.20;14.60;;;;;;;-3.33;57.90;99953.71;107535;1276;96202;-69
2022/01/08 02:41:43;;;;;;;33.50;16.00;;;;;;;-3.36;57.64;99950.96;107454;1276;95997;-69
2022/01/08 02:44:15;;;;;;;34.20;15.30;;;;;;;-3.37;57.80;99948.39;107304;1276;138004;-68
2022/01/08 02:46:47;;;;;;;33.90;15.10;;;;;;;-3.38;57.99;99935.80;106080;1276;109050;-69
2022/01/08 02:49:21;;;;;;;33.10;15.00;;;;;;;-3.38;58.17;99931.54;105926;1276;138147;-69
2022/01/08 02:51:54;;;;;;;34.60;15.50;;;;;;;-3.39;58.10;99939.01;107026;1276;96838;-69
2022/01/08 02:54:26;;;;;;;39.30;15.90;;;;;;;-3.39;57.85;99935.08;107413;1276;138852;-69
2022/01/08 02:56:57;;;;;;;35.70;15.50;;;;;;;-3.41;58.10;99929.27;107507;1276;112574;-70
2022/01/08 02:59:29;;;;;;;31.50;14.60;;;;;;;-3.44;58.15;99925.64;107392;1276;108902;-70
2022/01/08 03:02:01;;;;;;;36.80;16.60;;;;;;;-3.46;58.25;99922.70;106050;1276;138344;-69
2022/01/08 03:04:33;;;;;;;35.50;16.20;;;;;;;-3.49;58.43;99923.83;107382;1276;96746;-70
2022/01/08 03:07:05;;;;;;;39.20;16.10;;;;;;;-3.54;58.55;99924.95;107401;1276;137898;-70
2022/01/08 03:09:40;;;;;;;35.60;16.10;;;;;;;-3.58;58.87;99927.76;107484;1276;112484;-70
2022/01/08 03:12:12;;;;;;;32.60;16.30;;;;;;;-3.62;59.08;99933.27;106913;1276;138385;-69
2022/01/08 03:14:44;;;;;;;35.60;16.10;;;;;;;-3.69;59.04;99939.26;106090;1276;108864;-69
2022/01/08 03:17:15;;;;;;;38.00;16.90;;;;;;;-3.75;59.32;99934.89;106574;1276;97558;-68
2022/01/08 03:19:50;;;;;;;37.60;17.70;;;;;;;-3.82;59.23;99936.09;106935;1276;139058;-70
2022/01/08 03:22:22;;;;;;;33.90;16.80;;;;;;;-3.89;59.67;99936.80;106033;1276;110942;-69
2022/01/08 03:24:54;;;;;;;39.00;17.60;;;;;;;-3.96;59.88;99935.12;106800;1276;138686;-69
2022/01/08 03:27:25;;;;;;;37.70;17.30;;;;;;;-4.01;59.79;99931.95;106432;1276;108249;-70
2022/01/08 03:29:57;;;;;;;34.00;15.80;;;;;;;-4.06;60.21;99928.64;105823;1276;138319;-69
2022/01/08 03:32:29;;;;;;;38.70;17.00;;;;;;;-4.10;60.02;99926.17;106466;1276;97868;-69
2022/01/08 03:35:01;;;;;;;34.60;17.00;;;;;;;-4.13;60.42;99925.06;106080;1276;112399;-70
2022/01/08 03:37:33;;;;;;;37.90;17.20;;;;;;;-4.17;60.62;99920.06;107336;1276;138704;-70
2022/01/08 03:40:06;;;;;;;38.30;17.40;;;;;;;-4.19;60.66;99911.70;107474;1275;109109;-69
2022/01/08 03:42:38;;;;;;;38.80;18.40;;;;;;;-4.21;60.56;99918.11;107344;1276;138338;-70
2022/01/08 03:45:11;;;;;;;38.40;17.10;;;;;;;-4.23;60.86;99916.38;107505;1276;96059;-70
2022/01/08 03:48:06;;;;;;;35.10;16.80;;;;;;;-4.25;60.95;99910.06;107423;1276;111733;-70
2022/01/08 03:50:36;;;;;;;41.60;17.40;;;;;;;-4.28;61.03;99910.70;106100;1276;137967;-69
2022/01/08 03:53:07;;;;;;;35.70;16.70;;;;;;;-4.30;61.02;99912.15;106725;1276;108907;-68
2022/01/08 03:55:39;;;;;;;37.80;16.90;;;;;;;-4.34;61.00;99909.00;107373;1276;138475;-68
2022/01/08 03:58:11;;;;;;;36.30;16.90;;;;;;;-4.37;61.27;99908.44;107499;1276;96121;-67
2022/01/08 04:00:43;;;;;;;34.40;16.40;;;;;;;-4.40;61.45;99904.80;107381;1276;138568;-69
2022/01/08 04:03:18;;;;;;;34.10;16.30;;;;;;;-4.43;61.66;99904.90;106366;1276;109077;-68
2022/01/08 04:05:51;;;;;;;37.20;17.40;;;;;;;-4.44;61.34;99897.08;107446;1276;107765;-69
2022/01/08 04:08:23;;;;;;;39.20;16.90;;;;;;;-4.42;61.46;99896.27;107119;1276;139010;-68
2022/01/08 04:10:55;;;;;;;37.70;17.80;;;;;;;-4.41;61.65;99894.77;107393;1276;96014;-69
2022/01/08 04:13:30;;;;;;;39.10;19.10;;;;;;;-4.41;61.62;99894.59;106856;1276;138357;-69
2022/01/08 04:16:10;;;;;;;38.90;18.30;;;;;;;-4.41;61.67;99896.29;106850;1276;109022;-69
2022/01/08 04:18:42;;;;;;;40.20;19.70;;;;;;;-4.43;61.66;99899.30;107380;1276;138283;-69
2022/01/08 04:21:47;;;;;;;34.00;17.60;;;;;;;-4.46;61.77;99893.30;106151;1276;97872;-69
2022/01/08 04:24:11;;;;;;;32.60;16.00;;;;;;;-4.49;61.81;99899.51;106268;1276;97709;-69
2022/01/08 04:26:43;;;;;;;39.50;19.20;;;;;;;-4.52;62.07;99899.42;106099;1276;138745;-69
2022/01/08 04:29:15;;;;;;;43.90;18.60;;;;;;;-4.56;62.01;99896.81;106361;1276;107930;-69
2022/01/08 04:31:47;;;;;;;37.20;18.70;;;;;;;-4.60;61.89;99890.27;106980;1276;138951;-69
2022/01/08 04:34:19;;;;;;;41.60;19.30;;;;;;;-4.65;62.05;99891.19;107473;1275;96093;-69
2022/01/08 04:36:50;;;;;;;38.90;18.70;;;;;;;-4.69;62.29;99887.16;107386;1276;138745;-69
2022/01/08 04:39:22;;;;;;;44.30;18.70;;;;;;;-4.73;62.60;99890.11;107229;1274;112248;-69
2022/01/08 04:41:54;;;;;;;41.90;19.30;;;;;;;-4.77;62.77;99889.86;107302;1276;108962;-70
2022/01/08 04:44:26;;;;;;;39.00;17.50;;;;;;;-4.80;62.83;99885.22;105881;1276;140125;-69
2022/01/08 04:46:57;;;;;;;37.90;17.40;;;;;;;-4.80;63.02;99885.38;106687;1276;97582;-69
2022/01/08 04:49:29;;;;;;;36.90;17.50;;;;;;;-4.79;63.23;99884.23;107390;1276;139101;-69
2022/01/08 04:52:01;;;;;;;39.20;18.60;;;;;;;-4.78;63.09;99882.37;107497;1276;112558;-69
2022/01/08 04:54:33;;;;;;;39.20;18.60;;;;;;;-4.79;63.21;99880.33;107373;1275;138485;-69
2022/01/08 04:57:05;;;;;;;37.70;18.40;;;;;;;-4.81;63.28;99880.28;106677;1276;108973;-70
2022/01/08 04:59:37;;;;;;;39.10;18.90;;;;;;;-4.83;63.56;99885.32;107461;1276;96074;-69
2022/01/08 05:02:09;;;;;;;43.20;20.40;;;;;;;-4.86;63.48;99883.19;106699;1276;138863;-69
2022/01/08 05:04:41;;;;;;;41.10;19.20;;;;;;;-4.89;63.48;99879.40;105999;1276;111602;-69
2022/01/08 05:07:14;;;;;;;37.40;18.30;;;;;;;-4.92;63.45;99872.20;107335;1276;138883;-69
2022/01/08 05:09:45;;;;;;;43.30;20.30;;;;;;;-4.96;63.73;99869.92;107432;1276;110061;-69
2022/01/08 05:12:17;;;;;;;40.50;19.10;;;;;;;-5.00;63.91;99869.17;107454;1276;96205;-69
2022/01/08 05:14:49;;;;;;;44.50;19.50;;;;;;;-5.03;64.01;99871.45;107356;1276;224564;-69
2022/01/08 05:17:25;;;;;;;49.00;20.60;;;;;;;-5.05;63.97;99863.41;107483;1276;113375;-69
2022/01/08 05:20:00;;;;;;;41.50;18.90;;;;;;;-5.07;63.91;99867.44;107334;1275;140782;-70
2022/01/08 05:22:48;;;;;;;38.30;18.50;;;;;;;-5.07;64.05;99862.67;107435;1274;107728;-70
2022/01/08 05:25:22;;;;;;;38.90;17.80;;;;;;;-5.04;64.08;99864.11;106665;1276;138819;-70
2022/01/08 05:27:54;;;;;;;37.70;18.40;;;;;;;-5.00;63.96;99867.48;106177;1276;97844;-70
2022/01/08 05:30:27;;;;;;;41.10;18.60;;;;;;;-4.93;64.06;99868.96;105861;1276;137941;-69
2022/01/08 05:32:59;;;;;;;40.10;19.90;;;;;;;-4.89;63.85;99869.89;105970;1276;108392;-68
2022/01/08 05:35:33;;;;;;;41.00;19.50;;;;;;;-4.88;63.80;99865.69;106013;1276;109681;-68
2022/01/08 05:38:05;;;;;;;41.90;19.60;;;;;;;-4.88;63.70;99869.08;105982;1276;139084;-69
2022/01/08 05:40:37;;;;;;;39.70;19.30;;;;;;;-4.91;63.78;99865.30;106069;1276;97848;-69
2022/01/08 05:43:08;;;;;;;44.40;19.90;;;;;;;-4.93;63.80;99865.73;105937;1276;138465;-69
2022/01/08 05:45:40;;;;;;;44.10;20.10;;;;;;;-4.99;63.85;99862.57;106049;1276;107651;-69
2022/01/08 05:48:13;;;;;;;43.30;19.70;;;;;;;-5.03;63.92;99868.06;106007;1276;110122;-69
2022/01/08 05:50:45;;;;;;;41.60;19.10;;;;;;;-5.06;64.07;99868.30;105896;1275;137861;-69
2022/01/08 05:53:16;;;;;;;45.40;19.50;;;;;;;-5.09;64.00;99867.90;105998;1276;97952;-69
2022/01/08 05:55:49;;;;;;;43.60;21.00;;;;;;;-5.13;64.10;99867.48;105947;1276;137961;-69
2022/01/08 05:58:21;;;;;;;39.50;19.60;;;;;;;-5.17;64.29;99869.91;106001;1276;108402;-69
2022/01/08 06:00:52;;;;;;;42.70;19.10;;;;;;;-5.23;64.43;99871.78;105813;1276;138597;-69
2022/01/08 06:03:24;;;;;;;41.00;18.90;;;;;;;-5.27;64.74;99872.88;105992;1276;97959;-69
2022/01/08 06:05:56;;;;;;;41.30;19.60;;;;;;;-5.29;64.92;99867.59;106067;1276;97689;-69
2022/01/08 06:08:28;;;;;;;40.80;20.30;;;;;;;-5.30;65.17;99863.48;105949;1276;138675;-69
2022/01/08 06:11:01;;;;;;;41.70;19.10;;;;;;;-5.30;65.08;99865.84;106049;1276;108524;-69
2022/01/08 06:13:32;;;;;;;43.40;20.50;;;;;;;-5.32;65.00;99868.17;105904;1276;138744;-68
2022/01/08 06:16:05;;;;;;;46.60;21.80;;;;;;;-5.35;65.14;99869.64;105925;1276;97852;-69
2022/01/08 06:18:37;;;;;;;45.70;21.00;;;;;;;-5.38;65.28;99868.36;106759;1276;140074;-69
2022/01/08 06:21:09;;;;;;;49.20;21.50;;;;;;;-5.43;65.58;99866.70;106121;1276;110713;-69
2022/01/08 06:23:40;;;;;;;49.00;22.10;;;;;;;-5.48;65.85;99863.20;106062;1276;108449;-68
2022/01/08 06:26:12;;;;;;;46.20;21.40;;;;;;;-5.53;65.96;99865.62;105917;1276;138397;-69
2022/01/08 06:28:44;;;;;;;43.90;20.00;;;;;;;-5.57;66.08;99865.15;107316;1276;96142;-69
2022/01/08 06:31:17;;;;;;;46.00;20.40;;;;;;;-5.57;66.13;99870.08;107368;1276;139394;-69
2022/01/08 06:33:49;;;;;;;44.50;20.00;;;;;;;-5.55;66.22;99866.94;107465;1276;112557;-69
2022/01/08 06:36:23;;;;;;;43.40;21.40;;;;;;;-5.51;66.15;99870.23;106116;1276;108900;-69
2022/01/08 06:38:55;;;;;;;42.70;18.80;;;;;;;-5.50;66.27;99867.38;107347;1275;138703;-70
2022/01/08 06:41:29;;;;;;;43.80;20.90;;;;;;;-5.51;66.04;99867.36;106597;1276;97861;-69
2022/01/08 06:44:00;;;;;;;48.20;21.90;;;;;;;-5.52;66.30;99865.65;105922;1276;138178;-68
2022/01/08 06:46:33;;;;;;;45.30;21.80;;;;;;;-5.53;66.48;99865.80;107063;1276;112091;-69
2022/01/08 06:49:07;;;;;;;43.00;20.70;;;;;;;-5.55;66.38;99863.70;105939;1276;138225;-68
2022/01/08 06:51:39;;;;;;;45.70;22.00;;;;;;;-5.56;66.62;99858.59;106815;1276;108924;-68
2022/01/08 06:54:11;;;;;;;42.60;21.60;;;;;;;-5.58;66.59;99861.92;107278;1276;95923;-69
2022/01/08 06:56:42;;;;;;;42.60;20.70;;;;;;;-5.60;66.68;99860.35;105911;1276;138049;-69
2022/01/08 06:59:14;;;;;;;45.00;20.70;;;;;;;-5.59;66.85;99863.92;106922;1276;111822;-68
2022/01/08 07:01:46;;;;;;;46.00;21.80;;;;;;;-5.56;66.79;99860.45;105926;1276;139406;-69
2022/01/08 07:04:18;;;;;;;43.20;21.10;;;;;;;-5.52;66.76;99862.25;105993;1276;109083;-68
2022/01/08 07:06:49;;;;;;;43.70;22.00;;;;;;;-5.47;66.62;99863.39;106771;1275;138876;-70
2022/01/08 07:09:21;;;;;;;45.00;21.70;;;;;;;-5.42;66.52;99855.37;107529;1275;95783;-69
2022/01/08 07:11:53;;;;;;;52.20;23.00;;;;;;;-5.37;66.46;99859.41;106694;1276;111369;-69
2022/01/08 07:14:24;;;;;;;42.70;21.10;;;;;;;-5.33;66.12;99851.72;105951;1276;138056;-69
2022/01/08 07:16:57;;;;;;;44.40;21.80;;;;;;;-5.26;66.32;99851.89;106908;1276;108267;-70
2022/01/08 07:19:29;;;;;;;45.10;21.60;;;;;;;-5.14;66.14;99854.06;106162;1275;138975;-68
2022/01/08 07:22:01;;;;;;;44.90;20.50;;;;;;;-5.03;66.01;99857.70;107479;1276;96209;-69
2022/01/08 07:24:33;;;;;;;44.60;21.00;;;;;;;-4.90;65.67;99856.66;107346;1276;139692;-69
2022/01/08 07:27:05;;;;;;;43.40;21.20;;;;;;;-4.75;65.59;99852.59;107467;1276;108827;-69
2022/01/08 07:29:37;;;;;;;45.90;22.60;;;;;;;-4.58;65.29;99846.20;107315;1275;107836;-70
2022/01/08 07:32:09;;;;;;;40.10;21.00;;;;;;;-4.40;64.56;99847.61;106325;1276;138030;-70
2022/01/08 07:34:41;;;;;;;42.80;22.00;;;;;;;-4.23;64.41;99841.34;107500;1276;96153;-69
2022/01/08 07:37:13;;;;;;;40.50;20.70;;;;;;;-4.06;63.78;99831.83;107363;1276;138435;-69
2022/01/08 07:39:45;;;;;;;38.70;20.30;;;;;;;-3.90;63.35;99833.18;107014;1274;107918;-69
2022/01/08 07:42:17;;;;;;;43.30;21.70;;;;;;;-3.76;62.06;99837.53;107442;1276;108675;-69
2022/01/08 07:44:49;;;;;;;38.70;20.10;;;;;;;-3.60;62.72;99837.13;107358;1276;138044;-69
2022/01/08 07:47:21;;;;;;;40.00;19.90;;;;;;;-3.41;62.51;99837.80;107485;1276;96111;-69
2022/01/08 07:49:52;;;;;;;42.10;20.80;;;;;;;-3.22;62.26;99829.98;107363;1274;138621;-70
2022/01/08 07:52:24;;;;;;;42.60;20.50;;;;;;;-3.02;61.17;99833.02;107444;1276;108967;-69
2022/01/08 07:54:56;;;;;;;41.30;20.10;;;;;;;-2.90;60.62;99828.61;107338;1276;138736;-69
2022/01/08 07:57:27;;;;;;;38.70;20.60;;;;;;;-2.80;59.71;99827.23;107452;1275;96331;-69
2022/01/08 07:59:59;;;;;;;42.00;20.30;;;;;;;-2.67;59.77;99827.77;107441;1276;95771;-70
2022/01/08 08:02:31;;;;;;;40.50;20.90;;;;;;;-2.51;59.85;99830.52;106477;1276;138397;-71
2022/01/08 08:05:03;;;;;;;38.40;20.00;;;;;;;-2.31;59.26;99830.46;105942;1276;108636;-71
2022/01/08 08:07:41;;;;;;;36.60;20.40;;;;;;;-2.14;58.49;99823.70;106003;1276;138048;-69
2022/01/08 08:10:15;;;;;;;39.40;19.90;;;;;;;-1.95;57.79;99829.54;106963;1276;97628;-69
2022/01/08 08:12:47;;;;;;;39.70;20.30;;;;;;;-1.83;57.84;99833.60;106655;1276;138345;-68
2022/01/08 08:15:20;;;;;;;38.00;20.30;;;;;;;-1.70;56.97;99827.94;105938;1276;112604;-69
2022/01/08 08:17:52;;;;;;;37.60;19.80;;;;;;;-1.61;56.61;99824.63;105868;1276;108934;-69
2022/01/08 08:20:25;;;;;;;36.20;19.90;;;;;;;-1.48;56.67;99819.63;106025;1276;138695;-69
2022/01/08 08:22:57;;;;;;;36.50;19.50;;;;;;;-1.30;55.85;99823.89;106769;1276;98180;-70
2022/01/08 08:25:29;;;;;;;35.90;19.60;;;;;;;-1.13;55.98;99815.68;107342;1276;141706;-70
2022/01/08 08:28:00;;;;;;;39.80;20.70;;;;;;;-0.89;55.85;99814.84;107429;1276;112424;-70
2022/01/08 08:30:34;;;;;;;41.40;19.80;;;;;;;-0.76;55.10;99817.65;105955;1276;139142;-70
2022/01/08 08:33:06;;;;;;;37.80;20.00;;;;;;;-0.89;54.50;99819.61;106047;1276;107840;-70
2022/01/08 08:35:38;;;;;;;35.30;18.30;;;;;;;-0.98;54.93;99819.89;105983;1276;97821;-69
2022/01/08 08:38:09;;;;;;;38.50;20.10;;;;;;;-1.08;54.49;99815.73;105868;1276;139188;-69
2022/01/08 08:40:42;;;;;;;37.80;20.40;;;;;;;-1.23;54.89;99815.61;107226;1275;111854;-69
2022/01/08 08:43:13;;;;;;;36.90;20.00;;;;;;;-1.37;55.29;99812.08;106872;1276;138449;-68
2022/01/08 08:45:46;;;;;;;36.00;19.40;;;;;;;-1.48;55.27;99810.77;106008;1276;109229;-70
2022/01/08 08:48:17;;;;;;;41.00;19.70;;;;;;;-1.61;55.45;99804.17;106059;1276;97898;-69
2022/01/08 08:50:49;;;;;;;41.30;19.50;;;;;;;-1.70;55.81;99812.77;106514;1276;139033;-70
2022/01/08 08:53:21;;;;;;;35.50;18.90;;;;;;;-1.60;56.15;99812.70;107460;1276;112486;-70
2022/01/08 08:55:53;;;;;;;44.50;19.70;;;;;;;-1.35;56.56;99811.58;106191;1276;138325;-70
2022/01/08 08:58:24;;;;;;;36.60;19.20;;;;;;;-1.04;56.35;99814.90;106607;1276;108495;-69
2022/01/08 09:00:56;;;;;;;36.30;19.50;;;;;;;-0.87;55.42;99822.54;106839;1276;137907;-70
2022/01/08 09:03:28;;;;;;;40.50;19.90;;;;;;;-0.77;55.36;99819.52;107445;1276;96096;-70
2022/01/08 09:06:00;;;;;;;37.40;19.80;;;;;;;-0.72;55.17;99814.27;107469;1276;112492;-70
2022/01/08 09:08:32;;;;;;;40.30;19.80;;;;;;;-0.74;54.81;99815.27;107372;1276;138677;-71
2022/01/08 09:11:04;;;;;;;37.40;19.20;;;;;;;-0.84;54.44;99811.11;107436;1276;108579;-70
2022/01/08 09:13:35;;;;;;;40.30;20.00;;;;;;;-0.89;54.52;99810.40;107036;1276;137976;-71
2022/01/08 09:16:07;;;;;;;36.20;19.30;;;;;;;-0.94;55.17;99803.02;107431;1276;96019;-70
2022/01/08 09:18:41;;;;;;;37.10;19.60;;;;;;;-1.06;54.71;99799.52;105996;1276;138031;-70
2022/01/08 09:21:13;;;;;;;38.90;20.00;;;;;;;-1.15;55.17;99794.33;105849;1276;107933;-70
2022/01/08 09:23:45;;;;;;;44.50;20.40;;;;;;;-1.18;55.24;99793.13;105803;1276;107615;-70
2022/01/08 09:26:17;;;;;;;36.40;19.20;;;;;;;-1.19;55.32;99789.88;105794;1276;138540;-70
2022/01/08 09:28:49;;;;;;;44.30;20.00;;;;;;;-1.18;55.20;99789.71;105918;1276;97901;-70
2022/01/08 09:31:21;;;;;;;38.60;19.10;;;;;;;-1.14;55.38;99787.35;106148;1276;137783;-70
2022/01/08 09:33:52;;;;;;;43.80;20.10;;;;;;;-1.09;55.40;99785.34;107429;1276;108941;-70
2022/01/08 09:36:24;;;;;;;35.30;19.00;;;;;;;-1.07;55.31;99783.82;106671;1276;108958;-70
2022/01/08 09:38:56;;;;;;;43.00;18.30;;;;;;;-1.01;55.57;99783.52;106430;1276;137886;-70
2022/01/08 09:41:28;;;;;;;35.20;19.10;;;;;;;-0.98;55.57;99782.70;107458;1275;96199;-70
2022/01/08 09:44:00;;;;;;;38.90;20.00;;;;;;;-1.00;55.53;99784.55;107360;1276;138310;-69
2022/01/08 09:46:32;;;;;;;39.10;19.30;;;;;;;-0.96;55.63;99781.68;107471;1276;108862;-70
2022/01/08 09:49:03;;;;;;;32.70;17.80;;;;;;;-0.89;55.67;99782.59;107323;1276;138637;-70
2022/01/08 09:51:36;;;;;;;41.10;18.70;;;;;;;-0.86;55.16;99779.20;106694;1276;97852;-70
2022/01/08 09:54:08;;;;;;;39.10;19.00;;;;;;;-0.78;55.44;99784.87;106045;1276;97954;-69
2022/01/08 09:56:40;;;;;;;33.50;16.90;;;;;;;-0.72;55.40;99784.58;106830;1276;138943;-70
2022/01/08 09:59:11;;;;;;;38.70;17.60;;;;;;;-0.71;55.13;99783.73;107435;1276;108883;-70
2022/01/08 10:01:43;;;;;;;34.70;17.00;;;;;;;-0.62;55.67;99783.77;107366;1276;138771;-70
2022/01/08 10:04:25;;;;;;;31.70;17.30;;;;;;;-0.59;55.35;99785.48;107462;1276;96064;-69
2022/01/08 10:07:16;;;;;;;35.80;17.90;;;;;;;-0.55;55.42;99780.23;107375;1273;137829;-70
2022/01/08 10:10:03;;;;;;;33.10;17.60;;;;;;;-0.44;54.97;99780.27;106879;1276;112525;-70
2022/01/08 10:12:42;;;;;;;32.20;17.20;;;;;;;-0.40;54.74;99778.58;106844;1276;108794;-70
2022/01/08 10:18:05;;;;;;;36.00;19.60;;;;;;;-0.41;55.07;99775.84;107469;1276;96165;-70
2022/01/08 10:20:39;;;;;;;34.60;18.00;;;;;;;-0.38;55.01;99782.34;107314;1274;138089;-70
2022/01/08 10:23:17;;;;;;;32.50;18.30;;;;;;;-0.39;54.90;99774.98;106118;1276;112626;-70
2022/01/08 10:26:00;;;;;;;37.20;18.30;;;;;;;-0.43;54.99;99774.64;105969;1276;138042;-70
2022/01/08 10:28:38;;;;;;;36.20;18.50;;;;;;;-0.53;54.53;99767.94;106590;1276;108871;-70
2022/01/08 10:31:16;;;;;;;41.60;19.70;;;;;;;-0.67;54.75;99762.23;105985;1276;139688;-70
2022/01/08 10:33:50;;;;;;;37.30;18.50;;;;;;;-0.73;55.48;99753.14;107437;1275;96154;-71
2022/01/08 10:36:25;;;;;;;41.00;19.70;;;;;;;-0.71;55.35;99747.38;107474;1276;111978;-70
2022/01/08 10:39:00;;;;;;;37.20;18.30;;;;;;;-0.71;55.52;99749.59;107351;1276;137803;-70
2022/01/08 10:41:32;;;;;;;38.20;19.80;;;;;;;-0.74;55.57;99748.52;106399;1276;108844;-71
2022/01/08 10:44:13;;;;;;;39.50;19.80;;;;;;;-0.70;55.87;99740.20;106911;1275;137964;-70
2022/01/08 10:46:55;;;;;;;37.90;19.30;;;;;;;-0.59;55.95;99736.31;106431;1276;97851;-70
2022/01/08 10:49:35;;;;;;;35.30;19.00;;;;;;;-0.53;55.71;99730.89;105956;1276;138652;-70
2022/01/08 10:52:10;;;;;;;37.60;19.50;;;;;;;-0.55;55.56;99718.22;106048;1276;108550;-70
2022/01/08 10:54:43;;;;;;;35.90;19.10;;;;;;;-0.53;55.64;99710.89;105993;1276;108605;-70
2022/01/08 10:57:16;;;;;;;42.10;20.30;;;;;;;-0.51;55.72;99713.98;105920;1276;137701;-70
2022/01/08 10:59:55;;;;;;;40.00;20.80;;;;;;;-0.50;56.00;99705.11;106076;1276;97842;-70
2022/01/08 11:02:28;;;;;;;39.60;19.90;;;;;;;-0.45;56.01;99710.24;105879;1276;138156;-70
2022/01/08 11:05:03;;;;;;;38.70;20.50;;;;;;;-0.49;56.01;99710.92;105951;1276;108532;-69
2022/01/08 11:07:36;;;;;;;42.70;20.40;;;;;;;-0.49;56.24;99714.68;105907;1276;139571;-71
2022/01/08 11:10:15;;;;;;;40.10;20.90;;;;;;;-0.54;56.35;99715.50;106027;1276;97838;-70
2022/01/08 11:12:48;;;;;;;39.60;20.60;;;;;;;-0.61;56.28;99717.35;106134;1276;97926;-71
2022/01/08 11:15:35;;;;;;;35.40;19.50;;;;;;;-0.70;56.55;99725.01;105933;1275;137533;-68
2022/01/08 11:18:08;;;;;;;37.60;19.10;;;;;;;-0.81;56.73;99722.72;106051;1276;108896;-70
2022/01/08 11:21:00;;;;;;;40.40;19.80;;;;;;;-0.84;57.18;99718.79;105962;1276;138162;-70
2022/01/08 11:23:35;;;;;;;40.80;20.70;;;;;;;-0.80;57.28;99721.70;106150;1276;97828;-70
2022/01/08 11:26:11;;;;;;;40.70;20.10;;;;;;;-0.79;57.34;99722.21;105946;1276;137911;-70
2022/01/08 11:28:48;;;;;;;37.00;18.50;;;;;;;-0.84;57.18;99719.98;106067;1276;109610;-70
2022/01/08 11:31:21;;;;;;;37.00;20.50;;;;;;;-0.94;57.52;99721.95;105836;1274;138109;-70
2022/01/08 11:33:58;;;;;;;36.50;20.20;;;;;;;-1.00;57.61;99722.79;105878;1276;108914;-70
2022/01/08 11:36:33;;;;;;;35.30;20.10;;;;;;;-1.08;57.68;99718.98;105955;1276;97863;-70
2022/01/08 11:39:08;;;;;;;43.20;21.00;;;;;;;-1.14;58.09;99716.03;105820;1276;137895;-71
2022/01/08 11:41:41;;;;;;;35.70;19.40;;;;;;;-1.20;58.75;99716.18;105911;1276;113046;-71
2022/01/08 11:44:13;;;;;;;40.40;20.40;;;;;;;-1.21;58.62;99715.16;105914;1276;137870;-70
2022/01/08 11:46:48;;;;;;;40.80;19.70;;;;;;;-1.20;58.84;99718.56;106034;1276;107788;-72